createdAt,value
2023-01-18T00:01:08.342Z,87.22
2023-01-18T00:06:12.267Z,87.32
2023-01-18T00:11:17.517Z,87.19
2023-01-18T00:16:22.594Z,86.91
2023-01-18T00:21:28.198Z,87.08
2023-01-18T00:26:32.015Z,87.25
2023-01-18T00:31:35.817Z,87.34
2023-01-18T00:36:41.518Z,87.58
2023-01-18T00:42:05.558Z,87.70
2023-01-18T00:47:09.432Z,87.77
2023-01-18T00:52:13.343Z,87.78
2023-01-18T00:57:17.238Z,87.84
2023-01-18T01:02:21.140Z,87.99
2023-01-18T01:07:25.219Z,88.09
2023-01-18T01:12:47.579Z,88.08
2023-01-18T01:18:09.898Z,88.13
2023-01-18T01:23:40.995Z,88.36
2023-01-18T01:28:50.136Z,88.34
2023-01-18T01:33:53.959Z,88.78
2023-01-18T01:38:58.284Z,88.62
2023-01-18T01:44:21.899Z,88.76
2023-01-18T01:49:30.319Z,88.76
2023-01-18T01:54:38.919Z,88.83
2023-01-18T01:59:47.606Z,88.73
2023-01-18T02:04:53.999Z,88.96
2023-01-18T02:09:58.335Z,88.99
2023-01-18T02:15:02.515Z,89.04
2023-01-18T02:20:44.379Z,89.11
2023-01-18T02:26:33.676Z,89.16
2023-01-18T02:32:11.402Z,89.50
2023-01-18T02:37:52.036Z,89.66
2023-01-18T02:43:16.249Z,89.36
2023-01-18T02:48:22.099Z,89.47
2023-01-18T02:53:25.915Z,89.71
2023-01-18T02:58:56.259Z,89.78
2023-01-18T03:04:08.045Z,89.72
2023-01-18T03:09:18.779Z,89.87
2023-01-18T03:14:47.960Z,90.07
2023-01-18T03:20:05.464Z,90.15
2023-01-18T03:25:13.833Z,90.07
2023-01-18T03:30:36.295Z,90.14
2023-01-18T03:35:41.139Z,90.25
2023-01-18T03:40:45.016Z,90.38
2023-01-18T03:45:49.833Z,90.60
2023-01-18T03:51:15.136Z,90.77
2023-01-18T03:56:30.339Z,90.48
2023-01-18T04:01:34.294Z,90.81
2023-01-18T04:06:38.142Z,90.78
2023-01-18T04:11:41.883Z,91.13
2023-01-18T04:16:45.866Z,91.26
2023-01-18T04:21:49.561Z,91.54
2023-01-18T04:26:53.298Z,91.23
2023-01-18T04:31:57.281Z,91.50
2023-01-18T04:37:01.214Z,92.11
2023-01-18T04:42:05.295Z,92.36
2023-01-18T04:47:09.036Z,92.55
2023-01-18T04:52:12.977Z,93.13
2023-01-18T04:57:17.005Z,93.03
2023-01-18T05:02:20.838Z,93.56
2023-01-18T05:07:25.676Z,93.44
2023-01-18T05:12:30.093Z,93.37
2023-01-18T05:17:35.600Z,93.73
2023-01-18T05:22:39.721Z,93.90
2023-01-18T05:27:43.470Z,94.17
2023-01-18T05:32:47.269Z,94.28
2023-01-18T05:37:51.092Z,94.24
2023-01-18T05:42:54.993Z,94.83
2023-01-18T05:47:59.855Z,94.72
2023-01-18T05:53:03.603Z,94.99
2023-01-18T05:58:07.413Z,95.23
2023-01-18T06:03:11.150Z,95.20
2023-01-18T06:08:15.927Z,95.38
2023-01-18T06:13:19.931Z,95.75
2023-01-18T06:18:26.529Z,95.59
2023-01-18T06:23:31.406Z,95.91
2023-01-18T06:28:35.424Z,96.05
2023-01-18T06:33:39.234Z,96.42
2023-01-18T06:38:43.350Z,96.39
2023-01-18T06:43:47.194Z,96.80
2023-01-18T06:48:50.790Z,96.81
2023-01-18T06:53:54.549Z,96.91
2023-01-18T06:58:59.872Z,97.03
2023-01-18T07:04:03.721Z,97.14
2023-01-18T07:09:08.542Z,97.61
2023-01-18T07:14:15.318Z,97.41
2023-01-18T07:19:19.186Z,97.52
2023-01-18T07:24:22.959Z,97.67
2023-01-18T07:29:28.043Z,97.99
2023-01-18T07:34:32.800Z,98.20
2023-01-18T07:39:36.596Z,98.38
2023-01-18T07:44:40.405Z,98.46
2023-01-18T07:49:45.142Z,98.57
2023-01-18T07:54:48.898Z,98.50
2023-01-18T07:59:53.321Z,98.82
2023-01-18T08:04:56.998Z,98.78
2023-01-18T08:10:00.723Z,98.94
2023-01-18T08:15:05.165Z,98.86
2023-01-18T08:20:10.353Z,99.31
2023-01-18T08:25:14.638Z,99.51
2023-01-18T08:30:18.731Z,99.17
2023-01-18T08:35:23.848Z,99.16
2023-01-18T08:40:28.618Z,99.13
2023-01-18T08:45:33.490Z,99.35
2023-01-18T08:50:39.585Z,99.65
2023-01-18T08:55:43.585Z,99.36
2023-01-18T09:00:50.919Z,99.44
2023-01-18T09:05:54.946Z,99.51
2023-01-18T09:11:06.220Z,99.69
2023-01-18T09:16:11.708Z,99.60
2023-01-18T09:21:19.719Z,99.16
2023-01-18T09:26:23.677Z,99.19
2023-01-18T09:31:29.094Z,99.60
2023-01-18T09:36:33.078Z,99.45
2023-01-18T09:41:51.039Z,99.35
2023-01-18T09:47:11.169Z,99.89
2023-01-18T09:53:03.388Z,99.70
2023-01-18T09:58:49.179Z,99.73
2023-01-18T10:03:56.947Z,99.85
2023-01-18T10:09:07.226Z,99.86
2023-01-18T10:14:49.378Z,100.00
2023-01-18T10:19:53.259Z,99.94
2023-01-18T10:25:21.345Z,100.00
2023-01-18T10:30:40.886Z,100.00
2023-01-18T10:35:51.103Z,100.00
2023-01-18T10:41:01.097Z,100.00
2023-01-18T10:46:14.883Z,100.00
2023-01-18T10:51:29.716Z,100.00
2023-01-18T10:56:34.890Z,100.00
2023-01-18T11:01:55.039Z,100.00
2023-01-18T11:07:03.753Z,100.00
2023-01-18T11:12:43.244Z,100.00
2023-01-18T11:18:03.217Z,100.00
2023-01-18T11:23:32.214Z,100.00
2023-01-18T11:28:48.690Z,100.00
2023-01-18T11:34:01.033Z,100.00
2023-01-18T11:39:45.477Z,100.00
2023-01-18T11:45:13.799Z,100.00
2023-01-18T11:50:49.759Z,100.00
2023-01-18T11:56:06.767Z,100.00
2023-01-18T12:01:39.203Z,100.00
2023-01-18T12:07:18.509Z,100.00
2023-01-18T12:12:57.770Z,100.00
2023-01-18T12:18:38.779Z,100.00
2023-01-18T12:24:21.075Z,100.00
2023-01-18T12:29:55.884Z,100.00
2023-01-18T12:35:33.189Z,100.00
2023-01-18T12:41:03.055Z,100.00
2023-01-18T12:46:32.461Z,100.00
2023-01-18T12:51:38.031Z,100.00
2023-01-18T12:56:47.713Z,100.00
2023-01-18T13:02:03.603Z,100.00
2023-01-18T13:07:13.561Z,100.00
2023-01-18T13:12:20.660Z,100.00
2023-01-18T13:17:41.681Z,100.00
2023-01-18T13:23:16.448Z,100.00
2023-01-18T13:28:24.989Z,100.00
2023-01-18T13:33:48.097Z,100.00
2023-01-18T13:39:03.937Z,100.00
2023-01-18T13:44:32.676Z,100.00
2023-01-18T13:49:46.279Z,100.00
2023-01-18T13:55:26.338Z,100.00
2023-01-18T14:00:30.551Z,100.00
2023-01-18T14:05:40.252Z,100.00
2023-01-18T14:10:50.534Z,100.00
2023-01-18T14:15:55.917Z,100.00
2023-01-18T14:21:33.590Z,100.00
2023-01-18T14:26:41.017Z,100.00
2023-01-18T14:31:51.670Z,100.00
2023-01-18T14:36:57.138Z,100.00
2023-01-18T14:42:04.235Z,100.00
2023-01-18T14:47:24.382Z,100.00
2023-01-18T14:52:31.105Z,100.00
2023-01-18T14:57:35.743Z,100.00
2023-01-18T15:02:39.642Z,100.00
2023-01-18T15:07:46.997Z,100.00
2023-01-18T15:12:53.725Z,100.00
2023-01-18T15:18:10.789Z,100.00
2023-01-18T15:23:14.578Z,100.00
2023-01-18T15:28:23.825Z,100.00
2023-01-18T15:33:28.653Z,100.00
2023-01-18T15:38:33.061Z,100.00
2023-01-18T15:43:45.279Z,100.00
2023-01-18T15:48:55.948Z,100.00
2023-01-18T15:53:59.551Z,100.00
2023-01-18T15:59:10.114Z,100.00
2023-01-18T16:04:13.964Z,100.00
2023-01-18T16:09:21.333Z,100.00
2023-01-18T16:14:54.303Z,100.00
2023-01-18T16:19:58.262Z,100.00
2023-01-18T16:25:17.375Z,100.00
2023-01-18T16:30:31.157Z,100.00
2023-01-18T16:35:41.151Z,100.00
2023-01-18T16:40:50.360Z,100.00
2023-01-18T16:45:59.375Z,100.00
2023-01-18T16:51:17.407Z,100.00
2023-01-18T16:56:23.106Z,100.00
2023-01-18T17:01:30.828Z,100.00
2023-01-18T17:06:35.503Z,100.00
2023-01-18T17:11:42.716Z,100.00
2023-01-18T17:16:52.892Z,100.00
2023-01-18T17:21:58.623Z,100.00
2023-01-18T17:27:03.104Z,100.00
2023-01-18T17:32:08.747Z,100.00
2023-01-18T17:37:15.620Z,100.00
2023-01-18T17:42:29.780Z,100.00
2023-01-18T17:47:35.727Z,100.00
2023-01-18T17:52:42.085Z,100.00
2023-01-18T17:57:47.248Z,100.00
2023-01-18T18:02:54.639Z,100.00
2023-01-18T18:08:01.494Z,100.00
2023-01-18T18:13:06.751Z,100.00
2023-01-18T18:18:22.705Z,100.00
2023-01-18T18:23:31.180Z,100.00
2023-01-18T18:28:38.722Z,100.00
2023-01-18T18:33:44.479Z,100.00
2023-01-18T18:38:50.376Z,100.00
2023-01-18T18:43:55.333Z,100.00
2023-01-18T18:49:05.372Z,100.00
2023-01-18T18:54:12.398Z,100.00
2023-01-18T18:59:17.994Z,100.00
2023-01-18T19:04:23.456Z,100.00
2023-01-18T19:09:29.083Z,100.00
2023-01-18T19:14:34.860Z,100.00
2023-01-18T19:19:39.503Z,100.00
2023-01-18T19:24:45.301Z,100.00
2023-01-18T19:29:50.944Z,100.00
2023-01-18T19:34:55.775Z,100.00
2023-01-18T19:40:00.885Z,100.00
2023-01-18T19:45:19.614Z,100.00
2023-01-18T19:50:31.702Z,100.00
2023-01-18T19:55:39.356Z,100.00
2023-01-18T20:00:46.209Z,100.00
2023-01-18T20:05:51.380Z,100.00
2023-01-18T20:10:56.511Z,100.00
2023-01-18T20:16:06.457Z,100.00
2023-01-18T20:21:14.920Z,100.00
2023-01-18T20:26:34.918Z,100.00
2023-01-18T20:31:49.629Z,100.00
2023-01-18T20:37:03.438Z,100.00
2023-01-18T20:42:10.977Z,100.00
2023-01-18T20:47:17.676Z,100.00
2023-01-18T20:52:22.286Z,100.00
2023-01-18T20:57:32.942Z,100.00
2023-01-18T21:02:38.096Z,100.00
2023-01-18T21:07:42.243Z,100.00
2023-01-18T21:12:48.275Z,100.00
2023-01-18T21:17:54.960Z,100.00
2023-01-18T21:23:00.557Z,100.00
2023-01-18T21:28:04.575Z,100.00
2023-01-18T21:33:11.685Z,100.00
2023-01-18T21:38:16.605Z,100.00
2023-01-18T21:43:40.659Z,100.00
2023-01-18T21:48:44.376Z,100.00
2023-01-18T21:54:07.497Z,100.00
2023-01-18T21:59:38.325Z,100.00
2023-01-18T22:18:16.048Z,100.00
2023-01-18T22:23:23.574Z,100.00
2023-01-18T22:28:29.377Z,100.00
2023-01-18T22:33:33.559Z,100.00
2023-01-18T22:38:38.383Z,100.00
2023-01-18T22:43:42.825Z,100.00
2023-01-18T22:48:50.389Z,100.00
2023-01-18T22:53:58.862Z,100.00
2023-01-18T22:59:02.746Z,100.00
2023-01-18T23:04:07.096Z,100.00
2023-01-18T23:09:10.844Z,100.00
2023-01-18T23:14:33.396Z,100.00
2023-01-18T23:19:37.171Z,100.00
2023-01-18T23:24:40.945Z,100.00
2023-01-18T23:29:47.705Z,100.00
2023-01-18T23:34:51.516Z,100.00
2023-01-18T23:40:14.486Z,100.00
2023-01-18T23:45:37.097Z,100.00
2023-01-18T23:50:59.629Z,100.00
2023-01-18T23:56:03.382Z,100.00
